Redmond, Utah
Current Conditions -  °F | °C
As of 5:55 PM on Tuesday 21 Oct 2014 (Local Time) from KDTA Reporting Station
Scattered Clouds Scattered Clouds  
Wind Chill: 62°   Ceiling: Unl
Heat Index: 62°   Visibility: 10mi
Dew Point: 31°   Wind: 20mph
Humidity: 32%   Direction: 340°NNW
Pressure: 29.96"   Gusts: 24mph
Location:  39.01°N, 111.86°W
Report Text: KDTA 212355Z AUTO 34017G21KT 10SM SCT100 SCT120 17/00 A2996 RMK AO1 T01671003 10351 20000
Loading
Personal Weather Stations






























Interactive Weather Map
Tropical Storm Tracking
New forecast layout! Learn more

10-Day Weather Forecast

Advertisements
Track Severe Weather on mobile